Time;durP1;ratioP1;P1;durP2;ratioP2;P2;SDS_P1;SDS_P2;PMS_P1;PMS_P2;Temp;Humidity;BMP_temperature;BMP_pressure;BME280_temperature;BME280_humidity;BME280_pressure;Samples;Min_cycle;Max_cycle;Signal;HPM_P1;HPM_P2
2021/09/29 00:00:48;;;;;;;7.72;7.15;;;12.70;99.90;;;13.56;85.06;98140.47;5150787;28;20207;-62
2021/09/29 00:03:21;;;;;;;6.68;6.18;;;12.70;99.90;;;13.56;86.94;98148.16;5154678;28;20583;-62
2021/09/29 00:05:55;;;;;;;7.78;7.20;;;12.70;99.90;;;13.53;85.30;98151.47;5160585;28;20222;-62
2021/09/29 00:08:28;;;;;;;7.57;6.97;;;12.70;99.90;;;13.51;85.20;98147.97;5149402;28;20306;-62
2021/09/29 00:11:03;;;;;;;7.65;7.05;;;12.60;99.90;;;13.50;86.77;98152.19;5155260;28;20204;-61
2021/09/29 00:13:36;;;;;;;7.20;6.50;;;12.70;99.90;;;13.49;86.45;98144.41;5156626;28;20245;-62
2021/09/29 00:16:09;;;;;;;8.93;8.23;;;12.70;99.90;;;13.45;86.14;98142.53;5147671;28;20591;-61
2021/09/29 00:18:42;;;;;;;8.57;7.78;;;12.60;99.90;;;13.38;85.67;98145.56;5162190;28;20202;-62
2021/09/29 00:21:15;;;;;;;8.68;7.90;;;12.60;99.90;;;13.38;85.32;98151.56;5150471;28;20237;-61
2021/09/29 00:23:48;;;;;;;8.02;7.32;;;12.50;99.90;;;13.40;87.08;98154.22;5158013;28;20219;-62
2021/09/29 00:26:23;;;;;;;8.30;7.63;;;12.50;99.90;;;13.47;86.01;98152.03;5153866;28;20222;-62
2021/09/29 00:28:56;;;;;;;8.30;7.65;;;12.60;99.90;;;13.48;86.33;98146.13;5156797;28;20202;-62
2021/09/29 00:31:35;;;;;;;9.00;8.20;;;12.70;99.90;;;13.49;85.92;98147.88;5151348;28;20202;-62
2021/09/29 00:34:11;;;;;;;10.23;8.93;;;12.70;99.90;;;13.37;88.52;98147.25;5154548;28;20206;-61
2021/09/29 00:36:45;;;;;;;10.25;9.35;;;12.70;99.90;;;13.25;89.72;98156.88;5151462;28;20579;-61
2021/09/29 00:39:19;;;;;;;9.75;8.90;;;12.60;99.90;;;13.20;92.27;98150.63;5151644;28;20205;-62
2021/09/29 00:41:54;;;;;;;10.70;9.63;;;12.60;99.90;;;13.15;95.38;98142.66;5170022;23;20311;-57
2021/09/29 00:44:28;;;;;;;8.80;8.00;;;12.60;99.90;;;13.00;94.33;98137.63;5185466;28;20288;-61
2021/09/29 00:47:01;;;;;;;10.20;8.82;;;12.40;99.90;;;12.90;95.11;98147.31;5183935;28;20294;-63
2021/09/29 00:49:34;;;;;;;10.02;8.88;;;12.30;99.90;;;12.84;96.38;98135.94;5190318;28;20198;-58
2021/09/29 00:52:07;;;;;;;9.73;8.65;;;12.30;99.90;;;12.70;96.13;98136.88;5172757;28;20223;-61
2021/09/29 00:54:41;;;;;;;9.77;8.90;;;12.10;99.90;;;12.66;96.28;98150.38;5162513;28;20218;-60
2021/09/29 00:57:16;;;;;;;11.80;10.55;;;12.10;99.90;;;12.69;99.45;98159.91;5171276;28;20714;-60
2021/09/29 00:59:50;;;;;;;11.93;10.82;;;12.20;99.90;;;12.69;99.99;98157.34;5169849;28;20198;-60
2021/09/29 01:02:23;;;;;;;10.93;9.93;;;12.20;99.90;;;12.63;100.00;98151.06;5161796;28;20322;-61
2021/09/29 01:04:57;;;;;;;10.85;9.93;;;12.10;99.90;;;12.66;99.94;98144.34;5177074;28;20664;-61
2021/09/29 01:07:44;;;;;;;10.95;10.05;;;12.10;99.90;;;12.68;99.98;98140.19;5161416;28;20294;-58
2021/09/29 01:10:30;;;;;;;11.15;10.10;;;12.10;99.90;;;12.68;100.00;98147.91;5163422;28;20206;-61
2021/09/29 01:13:12;;;;;;;13.98;12.32;;;12.10;99.90;;;12.71;100.00;98148.94;5169044;28;20306;-61
2021/09/29 01:15:48;;;;;;;12.02;10.93;;;12.20;99.90;;;12.69;100.00;98145.41;5174690;28;20306;-58
2021/09/29 01:18:25;;;;;;;11.65;10.55;;;12.10;99.90;;;12.73;100.00;98143.88;5174085;28;20290;-62
2021/09/29 01:21:04;;;;;;;12.95;11.75;;;12.20;99.90;;;12.80;100.00;98144.28;5171899;28;20292;-61
2021/09/29 01:23:54;;;;;;;12.05;11.05;;;12.20;99.90;;;12.79;100.00;98139.97;5169766;28;20246;-60
2021/09/29 01:26:31;;;;;;;12.10;10.98;;;12.20;99.90;;;12.84;100.00;98142.75;5168988;28;20562;-59
2021/09/29 01:29:08;;;;;;;14.40;12.95;;;12.10;99.90;;;12.89;100.00;98143.00;5172987;28;20607;-59
2021/09/29 01:31:42;;;;;;;14.32;13.07;;;12.20;99.90;;;12.88;100.00;98136.09;5164594;28;20640;-59
2021/09/29 01:34:15;;;;;;;13.00;11.80;;;12.20;99.90;;;12.92;100.00;98133.78;5171108;28;20222;-60
2021/09/29 01:36:48;;;;;;;13.18;11.88;;;12.20;99.90;;;12.98;100.00;98134.09;5166448;28;20199;-60
2021/09/29 01:39:25;;;;;;;13.68;12.35;;;12.30;99.90;;;12.99;100.00;98138.44;5165394;28;20635;-57
2021/09/29 01:42:00;;;;;;;12.02;10.88;;;12.20;99.90;;;12.97;100.00;98134.91;5167702;28;20223;-58
2021/09/29 01:44:34;;;;;;;12.10;11.10;;;12.20;99.90;;;12.90;100.00;98132.81;5165877;28;20203;-58
2021/09/29 01:47:09;;;;;;;13.80;12.40;;;12.10;99.90;;;12.85;100.00;98127.47;5168290;28;20199;-61
2021/09/29 01:49:46;;;;;;;12.70;11.57;;;12.10;99.90;;;12.82;100.00;98132.44;5167195;28;20713;-59
2021/09/29 01:52:22;;;;;;;13.88;12.45;;;12.10;99.90;;;12.83;100.00;98138.44;5167055;28;20222;-58
2021/09/29 01:54:57;;;;;;;12.05;11.00;;;12.00;99.90;;;12.79;100.00;98141.63;5159855;28;20238;-59
2021/09/29 01:57:32;;;;;;;12.88;11.68;;;12.00;99.90;;;12.78;100.00;98139.88;5166882;28;20213;-57
2021/09/29 02:00:07;;;;;;;12.95;11.75;;;12.00;99.90;;;12.81;100.00;98137.47;5166609;28;20199;-55
2021/09/29 02:02:42;;;;;;;12.55;11.35;;;12.10;99.90;;;12.86;100.00;98141.16;5163679;28;20215;-57
2021/09/29 02:05:27;;;;;;;13.40;12.15;;;12.10;99.90;;;12.83;100.00;98138.44;5165256;28;20199;-56
2021/09/29 02:08:03;;;;;;;14.60;13.07;;;12.00;99.90;;;12.83;100.00;98138.44;5165218;28;20234;-56
2021/09/29 02:10:36;;;;;;;13.55;12.25;;;12.10;99.90;;;12.82;100.00;98136.69;5166472;28;20203;-59
2021/09/29 02:13:11;;;;;;;12.95;11.65;;;12.10;99.90;;;12.80;100.00;98130.59;5169221;28;20250;-60
2021/09/29 02:15:44;;;;;;;14.30;12.75;;;11.90;99.90;;;12.78;100.00;98129.59;5180217;28;20309;-59
2021/09/29 02:18:17;;;;;;;13.55;12.20;;;11.90;99.90;;;12.78;100.00;98134.75;5169071;28;20206;-58
2021/09/29 02:20:52;;;;;;;14.45;13.13;;;11.90;99.90;;;12.78;100.00;98127.03;5173791;28;20207;-59
2021/09/29 02:23:25;;;;;;;14.35;12.93;;;12.00;99.90;;;12.79;100.00;98128.78;5172623;28;20226;-57
2021/09/29 02:25:58;;;;;;;13.80;12.43;;;12.00;99.90;;;12.87;100.00;98124.94;5169560;28;20191;-56
2021/09/29 02:28:32;;;;;;;12.43;11.23;;;12.20;99.90;;;12.85;100.00;98124.91;5176599;28;20199;-55
2021/09/29 02:31:06;;;;;;;13.50;12.27;;;12.10;99.90;;;12.84;100.00;98129.94;5172400;28;20202;-55
2021/09/29 02:33:39;;;;;;;13.52;12.32;;;11.90;99.90;;;12.91;100.00;98132.03;5174338;28;20219;-55
2021/09/29 02:36:12;;;;;;;14.80;13.32;;;12.00;99.90;;;12.95;100.00;98133.06;5173756;28;20219;-55
2021/09/29 02:38:45;;;;;;;14.90;13.40;;;12.10;99.90;;;12.91;100.00;98132.03;5167767;28;20866;-55
2021/09/29 02:41:20;;;;;;;13.65;12.23;;;12.10;99.90;;;12.90;100.00;98130.25;5173005;28;20230;-55
2021/09/29 02:43:54;;;;;;;13.55;12.15;;;12.10;99.90;;;12.97;100.00;98136.59;5168002;28;20238;-59
2021/09/29 02:46:27;;;;;;;12.63;11.60;;;12.10;99.90;;;12.94;100.00;98141.56;5170153;28;20199;-58
2021/09/29 02:49:01;;;;;;;11.98;10.77;;;12.10;99.90;;;12.95;100.00;98133.94;5173975;28;20570;-56
2021/09/29 02:51:34;;;;;;;11.65;10.55;;;12.00;99.90;;;12.89;100.00;98141.31;5163362;28;20290;-57
2021/09/29 02:54:07;;;;;;;11.23;10.10;;;12.00;99.90;;;12.87;100.00;98140.34;5166791;28;20210;-55
2021/09/29 02:56:40;;;;;;;11.32;10.35;;;12.00;99.90;;;12.82;100.00;98146.94;5167213;28;20253;-61
2021/09/29 02:59:15;;;;;;;10.35;9.45;;;11.90;99.90;;;12.77;100.00;98153.50;5172136;28;20196;-60
2021/09/29 03:01:48;;;;;;;12.23;11.13;;;11.90;99.90;;;12.73;100.00;98161.81;5168424;28;20315;-56
2021/09/29 03:04:21;;;;;;;12.60;11.40;;;11.80;99.90;;;12.74;100.00;98163.59;5168800;28;20632;-56
2021/09/29 03:06:54;;;;;;;13.63;12.27;;;11.90;99.90;;;12.77;100.00;98156.06;5167777;28;20198;-60
2021/09/29 03:09:27;;;;;;;13.15;11.95;;;12.00;99.90;;;12.84;100.00;98170.97;5166736;28;20302;-56
2021/09/29 03:12:00;;;;;;;14.07;12.50;;;12.00;99.90;;;12.85;100.00;98172.75;5165807;28;20269;-58
2021/09/29 03:14:35;;;;;;;13.27;11.98;;;12.00;99.90;;;12.89;100.00;98172.09;5163496;28;20615;-58
2021/09/29 03:17:08;;;;;;;13.25;11.95;;;12.00;99.90;;;12.91;100.00;98178.22;5166983;28;20199;-57
2021/09/29 03:19:41;;;;;;;12.80;11.57;;;12.10;99.90;;;12.93;100.00;98161.19;5165155;28;20295;-62
2021/09/29 03:22:14;;;;;;;13.95;12.63;;;12.00;99.90;;;12.95;100.00;98169.84;5163780;28;20229;-57
2021/09/29 03:24:47;;;;;;;13.57;12.13;;;12.00;99.90;;;12.98;100.00;98182.84;5166247;28;20650;-61
2021/09/29 03:27:20;;;;;;;14.32;13.02;;;12.00;99.90;;;12.95;100.00;98171.53;5164944;28;20206;-58
2021/09/29 03:29:55;;;;;;;14.07;12.50;;;12.00;99.90;;;12.97;100.00;98183.66;5164656;28;20338;-57
2021/09/29 03:32:28;;;;;;;14.18;12.98;;;12.00;99.90;;;12.96;100.00;98181.91;5165716;28;20225;-62
2021/09/29 03:35:01;;;;;;;13.70;12.50;;;12.10;99.90;;;12.98;100.00;98181.97;5167390;28;20227;-56
2021/09/29 03:37:34;;;;;;;13.15;11.95;;;12.00;99.90;;;12.95;100.00;98185.25;5167037;28;20263;-56
2021/09/29 03:40:09;;;;;;;13.13;11.80;;;12.00;99.90;;;12.93;100.00;98176.59;5167320;28;20206;-58
2021/09/29 03:42:44;;;;;;;12.38;11.25;;;12.00;99.90;;;12.90;100.00;98178.13;5172761;28;20226;-62
2021/09/29 03:45:18;;;;;;;12.18;11.07;;;12.00;99.90;;;12.84;100.00;98181.22;5172634;28;20574;-61
2021/09/29 03:47:51;;;;;;;12.18;11.07;;;11.90;99.90;;;12.87;100.00;98183.09;5169740;28;20229;-60
2021/09/29 03:50:24;;;;;;;14.07;12.45;;;11.90;99.90;;;12.87;100.00;98173.69;5172245;28;20206;-58
2021/09/29 03:52:57;;;;;;;13.20;11.80;;;12.00;99.90;;;12.85;100.00;98193.28;5165972;28;20223;-61
2021/09/29 03:55:31;;;;;;;13.68;12.40;;;11.90;99.90;;;12.88;100.00;98185.75;5173100;28;20254;-58
2021/09/29 03:58:04;;;;;;;13.73;12.43;;;12.00;99.90;;;12.93;100.00;98186.84;5177376;28;20281;-58
2021/09/29 04:00:38;;;;;;;14.95;13.35;;;12.00;99.90;;;12.97;100.00;98182.78;5169133;28;20203;-58
2021/09/29 04:03:12;;;;;;;14.57;13.18;;;12.20;99.90;;;13.03;100.00;98188.22;5172163;28;20218;-57
2021/09/29 04:05:45;;;;;;;14.13;12.82;;;12.20;99.90;;;13.08;100.00;98190.25;5170328;28;20287;-60
2021/09/29 04:08:18;;;;;;;13.98;12.35;;;12.20;99.90;;;13.11;100.00;98191.22;5166574;28;20340;-59
2021/09/29 04:10:53;;;;;;;13.13;11.77;;;12.20;99.90;;;13.13;100.00;98189.59;5166091;28;20303;-59
2021/09/29 04:13:28;;;;;;;14.15;12.65;;;12.20;99.90;;;13.16;100.00;98194.88;5170577;28;20599;-58
2021/09/29 04:16:03;;;;;;;13.82;12.38;;;12.20;99.90;;;13.13;100.00;98194.72;5164973;28;20218;-62
2021/09/29 04:18:36;;;;;;;12.50;11.30;;;12.10;99.90;;;13.11;100.00;98193.78;5165187;28;20252;-59
2021/09/29 04:21:11;;;;;;;13.45;12.05;;;12.10;99.90;;;13.13;100.00;98187.03;5168801;28;20640;-60
2021/09/29 04:23:44;;;;;;;13.55;12.15;;;12.10;99.90;;;13.12;100.00;98188.72;5169370;28;20309;-59
2021/09/29 04:26:17;;;;;;;13.48;12.27;;;12.10;99.90;;;13.04;100.00;98190.88;5164957;28;20195;-58
2021/09/29 04:28:52;;;;;;;13.20;11.90;;;12.00;99.90;;;13.05;100.00;98202.03;5170288;28;20207;-57
2021/09/29 04:31:26;;;;;;;13.60;12.40;;;12.10;99.90;;;13.10;100.00;98194.56;5163603;28;20206;-58
2021/09/29 04:33:59;;;;;;;17.30;15.70;;;12.10;99.90;;;13.12;100.00;98198.97;5170392;28;20227;-59
2021/09/29 04:36:33;;;;;;;14.13;12.93;;;12.10;99.90;;;13.08;100.00;98191.94;5165984;28;20223;-59
2021/09/29 04:39:06;;;;;;;14.45;13.05;;;12.10;99.90;;;13.06;100.00;98207.22;5164445;28;20283;-59
2021/09/29 04:41:39;;;;;;;15.15;13.65;;;12.10;99.90;;;12.99;100.00;98201.69;5165743;28;20658;-62
2021/09/29 04:44:12;;;;;;;13.85;12.43;;;12.00;99.90;;;13.00;100.00;98198.34;5168915;28;20302;-58
2021/09/29 04:46:46;;;;;;;12.95;11.82;;;11.90;99.90;;;13.00;100.00;98203.47;5171038;28;20643;-60
2021/09/29 04:49:19;;;;;;;14.32;13.02;;;12.00;99.90;;;12.95;100.00;98200.66;5170583;28;20208;-62
2021/09/29 04:51:52;;;;;;;13.15;11.98;;;11.90;99.90;;;12.92;100.00;98204.75;5170663;28;20202;-58
2021/09/29 04:54:26;;;;;;;14.40;12.98;;;11.90;99.90;;;12.91;100.00;98203.88;5169477;28;20199;-56
2021/09/29 04:56:59;;;;;;;15.00;13.50;;;11.90;99.90;;;12.94;100.00;98208.28;5168239;28;20266;-56
2021/09/29 04:59:32;;;;;;;13.13;11.93;;;11.90;99.90;;;12.90;100.00;98202.06;5173201;28;20297;-60
2021/09/29 05:02:11;;;;;;;16.08;14.48;;;11.90;99.90;;;12.92;100.00;98209.88;5170977;28;20223;-58
2021/09/29 05:04:44;;;;;;;14.88;13.38;;;12.00;99.90;;;12.91;100.00;98214.13;5178185;28;20199;-56
2021/09/29 05:07:20;;;;;;;14.45;13.05;;;11.90;99.90;;;12.97;100.00;98208.44;5170849;28;20199;-58
2021/09/29 05:09:53;;;;;;;13.55;12.25;;;12.00;99.90;;;13.02;100.00;98220.72;5180607;28;20298;-59
2021/09/29 05:12:29;;;;;;;13.45;12.07;;;12.00;99.90;;;13.02;100.00;98214.69;5186137;28;20309;-58
2021/09/29 05:15:02;;;;;;;13.65;12.35;;;12.10;99.90;;;13.00;100.00;98222.31;5169687;28;20203;-57
2021/09/29 05:17:36;;;;;;;14.73;13.32;;;12.00;99.90;;;13.04;100.00;98221.66;5175876;28;20325;-61
2021/09/29 05:20:10;;;;;;;13.70;12.38;;;12.10;99.90;;;13.08;100.00;98223.59;5188908;28;20266;-58
2021/09/29 05:22:43;;;;;;;14.48;13.05;;;12.10;99.90;;;13.13;100.00;98221.25;5172355;28;20775;-58
2021/09/29 05:25:16;;;;;;;14.20;12.90;;;12.20;99.90;;;13.18;100.00;98221.50;5171281;28;20209;-59
2021/09/29 05:27:50;;;;;;;14.63;13.18;;;12.20;99.90;;;13.22;100.00;98226.00;5172376;28;20230;-58
2021/09/29 05:30:23;;;;;;;15.27;13.77;;;12.30;99.90;;;13.29;100.00;98231.56;5170184;28;20199;-57
2021/09/29 05:32:57;;;;;;;14.27;13.00;;;12.30;99.90;;;13.28;100.00;98234.06;5177151;28;20223;-59
2021/09/29 05:35:30;;;;;;;14.90;13.60;;;12.30;99.90;;;13.29;100.00;98233.25;5179111;28;20208;-59
2021/09/29 05:38:03;;;;;;;15.10;13.60;;;12.30;99.90;;;13.30;100.00;98232.44;5178399;28;20309;-56
2021/09/29 05:40:37;;;;;;;14.43;13.00;;;12.30;99.90;;;13.32;100.00;98237.69;5172011;28;20195;-61
2021/09/29 05:43:10;;;;;;;14.40;13.02;;;12.30;99.90;;;13.35;100.00;98240.41;5173434;28;20237;-58
2021/09/29 05:45:43;;;;;;;14.18;12.77;;;12.30;99.90;;;13.36;100.00;98240.47;5178291;28;20322;-58
2021/09/29 05:48:18;;;;;;;13.77;12.50;;;12.40;99.90;;;13.37;100.00;98242.25;5173191;28;20203;-55
2021/09/29 05:50:51;;;;;;;14.15;12.93;;;12.30;99.90;;;13.35;100.00;98243.84;5174841;28;20573;-60
2021/09/29 05:53:24;;;;;;;13.82;12.52;;;12.30;99.90;;;13.34;100.00;98239.53;5179589;28;20257;-61
2021/09/29 05:55:57;;;;;;;13.10;11.90;;;12.30;99.90;;;13.28;100.00;98242.66;5171161;28;20213;-59
2021/09/29 05:58:30;;;;;;;12.95;11.88;;;12.20;99.90;;;13.22;100.00;98243.97;5164655;28;20211;-57
2021/09/29 06:01:04;;;;;;;12.82;11.75;;;12.20;99.90;;;13.18;100.00;98254.88;5170464;28;20214;-58
2021/09/29 06:03:38;;;;;;;13.88;12.48;;;12.20;99.90;;;13.19;100.00;98256.63;5167717;28;20631;-58
2021/09/29 06:06:11;;;;;;;13.60;12.30;;;12.10;99.90;;;13.16;100.00;98261.59;5173017;28;20198;-61
2021/09/29 06:08:44;;;;;;;14.70;13.20;;;12.10;99.90;;;13.37;100.00;98267.06;5169658;28;20229;-57
2021/09/29 06:11:17;;;;;;;14.88;13.48;;;12.20;99.90;;;13.56;100.00;98263.75;5171295;28;20320;-56
2021/09/29 06:13:50;;;;;;;13.60;12.45;;;12.30;99.90;;;13.76;100.00;98268.22;5167093;28;20254;-61
2021/09/29 06:16:23;;;;;;;14.23;12.85;;;12.50;99.90;;;13.97;100.00;98265.88;5169836;28;20667;-59
2021/09/29 06:18:58;;;;;;;13.55;12.35;;;12.60;99.90;;;14.28;100.00;98268.28;5172115;28;20199;-54
2021/09/29 06:21:31;;;;;;;13.10;11.90;;;12.90;99.90;;;14.66;100.00;98269.25;5167461;28;20206;-55
2021/09/29 06:24:04;;;;;;;12.43;11.18;;;13.10;99.90;;;14.84;99.38;98264.97;5170720;28;20597;-60
2021/09/29 06:26:38;;;;;;;11.50;10.48;;;13.20;99.90;;;15.25;97.64;98271.16;5166723;28;20667;-59
2021/09/29 06:29:11;;;;;;;11.40;10.25;;;13.40;99.90;;;15.45;95.55;98260.84;5171992;28;20656;-58
2021/09/29 06:31:44;;;;;;;11.50;10.40;;;13.50;99.90;;;15.66;93.09;98266.09;5170834;28;20568;-55
2021/09/29 06:34:18;;;;;;;10.88;9.77;;;13.60;99.90;;;16.06;91.07;98257.50;5168342;28;20206;-56
2021/09/29 06:36:52;;;;;;;9.38;8.48;;;13.80;99.90;;;16.50;87.67;98259.31;5167879;28;20619;-57
2021/09/29 06:39:25;;;;;;;9.93;9.07;;;13.90;99.90;;;16.97;85.15;98254.28;5165534;28;20214;-55
2021/09/29 06:42:01;;;;;;;9.10;8.20;;;14.20;99.90;;;17.38;80.56;98261.00;5171639;28;20318;-66
2021/09/29 06:44:34;;;;;;;8.82;8.02;;;14.40;99.90;;;17.48;80.27;98265.72;5163050;28;20207;-60
2021/09/29 06:47:07;;;;;;;10.07;9.00;;;14.60;99.90;;;17.41;78.88;98266.28;5167896;28;20200;-60
2021/09/29 06:49:42;;;;;;;8.60;7.78;;;14.90;99.90;;;17.57;78.62;98265.16;5165692;28;20246;-60
2021/09/29 06:52:15;;;;;;;7.82;7.15;;;15.20;99.90;;;17.44;78.40;98268.97;5167002;28;20222;-60
2021/09/29 06:54:48;;;;;;;7.05;6.50;;;15.40;99.90;;;17.46;76.04;98269.94;5163485;28;20290;-60
2021/09/29 06:57:21;;;;;;;6.93;6.32;;;15.50;99.90;;;17.17;77.50;98278.28;5164998;28;20234;-61
2021/09/29 06:59:54;;;;;;;6.85;6.35;;;15.40;99.90;;;17.07;78.32;98271.91;5160530;28;20221;-60
2021/09/29 07:02:27;;;;;;;6.97;6.47;;;15.40;99.90;;;17.14;77.04;98266.16;5166482;28;20230;-60
2021/09/29 07:05:01;;;;;;;8.27;7.22;;;15.50;99.90;;;17.40;76.61;98272.28;5164169;28;20772;-59
2021/09/29 07:07:34;;;;;;;7.20;6.50;;;15.80;99.90;;;17.67;75.96;98276.69;5163437;28;20220;-61
2021/09/29 07:10:09;;;;;;;7.00;6.30;;;16.00;99.90;;;17.75;75.87;98267.50;5162119;28;20210;-61
2021/09/29 07:12:43;;;;;;;6.13;5.57;;;16.10;99.90;;;17.94;72.88;98272.53;5167399;28;20465;-60
2021/09/29 07:15:16;;;;;;;6.63;5.63;;;16.40;99.90;;;18.15;71.99;98268.91;5155506;28;20235;-60
2021/09/29 07:17:51;;;;;;;6.93;5.10;;;16.60;99.90;;;18.26;71.69;98267.56;5167630;28;20221;-60
2021/09/29 07:20:27;;;;;;;6.03;5.53;;;16.70;99.90;;;18.32;72.97;98280.72;5159423;28;20583;-59
2021/09/29 07:23:00;;;;;;;5.78;5.28;;;16.90;99.90;;;18.46;70.18;98269.09;5165455;28;20218;-59
2021/09/29 07:25:34;;;;;;;5.18;4.57;;;17.10;99.90;;;18.63;69.39;98285.19;5160028;28;20229;-61
2021/09/29 07:28:07;;;;;;;5.53;5.13;;;17.20;99.90;;;18.77;68.74;98272.72;5158370;28;20211;-60
2021/09/29 07:30:42;;;;;;;5.15;4.60;;;17.30;99.90;;;18.88;67.76;98273.03;5159819;28;20879;-60
2021/09/29 07:33:16;;;;;;;5.45;4.85;;;17.40;99.90;;;18.95;66.66;98274.13;5159768;28;20230;-61
2021/09/29 07:35:51;;;;;;;5.00;4.60;;;17.40;99.90;;;18.92;66.79;98274.03;5163810;28;20603;-61
2021/09/29 07:38:27;;;;;;;4.72;4.25;;;17.50;99.90;;;18.98;66.47;98269.03;5161043;28;20585;-60
2021/09/29 07:41:00;;;;;;;5.20;4.03;;;17.60;99.90;;;19.01;66.03;98266.53;5165284;28;20342;-60
2021/09/29 07:43:33;;;;;;;5.25;3.78;;;17.70;99.90;;;19.13;66.04;98274.66;5162561;28;20241;-60
2021/09/29 07:46:06;;;;;;;5.40;4.03;;;17.80;99.90;;;19.19;65.16;98268.78;5158102;28;20309;-60
2021/09/29 07:48:39;;;;;;;4.40;3.92;;;17.90;99.90;;;19.27;64.27;98265.56;5162602;28;20192;-59
2021/09/29 07:51:14;;;;;;;4.30;3.25;;;18.10;99.90;;;19.30;64.02;98260.47;5167670;28;20199;-60
2021/09/29 07:53:47;;;;;;;4.03;3.53;;;18.20;99.90;;;19.46;63.63;98263.50;5163678;28;20700;-60
2021/09/29 07:56:21;;;;;;;4.75;3.65;;;18.20;99.90;;;19.55;63.21;98263.78;5165464;28;20290;-60
2021/09/29 07:58:54;;;;;;;3.45;3.15;;;18.30;99.90;;;19.56;61.95;98266.41;5165592;28;20229;-60
2021/09/29 08:01:27;;;;;;;3.85;3.45;;;18.40;99.90;;;19.60;62.58;98267.34;5166205;28;20195;-61
2021/09/29 08:04:00;;;;;;;4.82;3.33;;;18.40;99.90;;;19.68;62.07;98265.91;5163082;28;20745;-58
2021/09/29 08:06:35;;;;;;;2.90;2.58;;;18.50;99.90;;;19.75;61.14;98267.84;5163937;28;20199;-59
2021/09/29 08:09:08;;;;;;;3.35;2.83;;;18.70;99.90;;;19.88;61.16;98275.94;5167501;28;20290;-61
2021/09/29 08:11:41;;;;;;;4.28;3.03;;;18.80;99.90;;;19.94;61.31;98273.50;5164680;28;20198;-61
2021/09/29 08:14:14;;;;;;;3.47;3.17;;;18.80;99.90;;;20.04;60.67;98280.72;5164186;28;20556;-60
2021/09/29 08:16:48;;;;;;;4.63;3.00;;;19.00;99.90;;;20.15;61.10;98284.47;5167867;28;20310;-61
2021/09/29 08:19:21;;;;;;;3.97;3.00;;;19.20;99.90;;;20.34;58.84;98274.53;5158116;28;20225;-61
2021/09/29 08:21:55;;;;;;;4.78;3.10;;;19.30;99.90;;;20.34;58.39;98277.13;5160374;28;20642;-61
2021/09/29 08:24:36;;;;;;;3.13;2.65;;;19.40;99.90;;;20.49;57.46;98280.13;5162636;28;20314;-60
2021/09/29 08:27:15;;;;;;;3.65;2.22;;;19.40;99.90;;;20.39;58.26;98278.16;5158143;28;20211;-60
2021/09/29 08:29:55;;;;;;;3.97;2.47;;;19.30;99.90;;;20.20;57.62;98288.06;5161260;28;20207;-61
2021/09/29 08:32:35;;;;;;;3.53;2.70;;;18.90;99.90;;;20.14;57.12;98287.88;5163763;28;20223;-60
2021/09/29 08:35:13;;;;;;;3.22;2.10;;;19.00;99.90;;;20.27;55.94;98283.91;5169846;28;20199;-61
2021/09/29 08:37:50;;;;;;;3.15;2.10;;;19.10;99.90;;;20.35;55.65;98278.91;5167480;28;20223;-60
2021/09/29 08:40:24;;;;;;;3.15;2.85;;;19.30;99.90;;;20.49;54.89;98280.13;5158101;28;20202;-59
2021/09/29 08:43:10;;;;;;;3.92;2.28;;;19.60;99.90;;;20.60;55.18;98277.81;5155483;28;20227;-61
2021/09/29 08:45:51;;;;;;;2.50;2.28;;;19.80;99.90;;;20.65;55.08;98271.88;5158510;28;20195;-61
2021/09/29 08:48:33;;;;;;;3.42;2.20;;;19.90;99.90;;;20.73;54.49;98263.41;5164628;28;20195;-60
2021/09/29 08:54:06;;;;;;;2.03;1.90;;;20.00;99.90;;;20.70;53.42;98265.09;5165268;28;20227;-61
2021/09/29 08:57:01;;;;;;;2.75;2.20;;;19.90;99.90;;;20.78;53.43;98273.06;5160259;28;20199;-60
2021/09/29 09:16:45;;;;;;;2.55;1.83;;;20.20;99.90;;;21.02;51.54;98262.34;5162098;28;20291;-60
2021/09/29 09:19:29;;;;;;;2.75;1.67;;;20.20;99.60;;;21.02;50.13;98267.53;5158993;28;20269;-60
2021/09/29 09:22:05;;;;;;;2.58;1.77;;;20.30;98.80;;;21.00;50.75;98274.41;5159921;28;20235;-61
2021/09/29 09:24:38;;;;;;;2.00;1.80;;;20.20;98.60;;;21.00;49.54;98265.75;5168214;28;20194;-60
2021/09/29 09:27:18;;;;;;;4.78;1.98;;;20.30;98.10;;;20.95;50.19;98270.00;5158621;28;20210;-60
2021/09/29 09:29:53;;;;;;;2.05;1.77;;;20.20;98.30;;;20.94;50.01;98258.69;5158832;28;20293;-60
2021/09/29 09:32:26;;;;;;;2.55;1.73;;;20.20;98.20;;;20.96;50.54;98257.00;5159218;28;20317;-60
2021/09/29 09:35:04;;;;;;;4.13;1.85;;;20.20;98.50;;;20.96;49.48;98256.13;5170267;28;20213;-60
2021/09/29 09:37:39;;;;;;;3.38;2.03;;;20.10;97.80;;;20.97;50.35;98253.56;5160897;28;20208;-60
2021/09/29 09:40:16;;;;;;;2.75;1.98;;;20.20;98.50;;;20.96;50.59;98246.63;5163447;28;20252;-61
2021/09/29 09:42:56;;;;;;;2.75;1.77;;;20.40;98.30;;;21.08;49.69;98246.00;5166953;28;20289;-59
2021/09/29 09:45:39;;;;;;;3.50;1.90;;;20.50;97.50;;;21.33;48.91;98252.63;5164330;28;20288;-61
2021/09/29 09:48:21;;;;;;;6.10;2.17;;;20.70;97.10;;;21.35;47.72;98248.31;5161315;28;20593;-60
2021/09/29 09:51:07;;;;;;;3.85;2.05;;;20.80;96.30;;;21.45;47.52;98247.69;5162871;28;20721;-61
2021/09/29 09:53:40;;;;;;;7.28;3.47;;;20.70;96.50;;;21.37;48.75;98249.25;5161776;28;20221;-61
2021/09/29 09:56:19;;;;;;;3.72;2.65;;;20.70;97.00;;;21.43;47.04;98244.16;5163958;28;20211;-60
2021/09/29 09:58:56;;;;;;;3.45;2.22;;;20.80;95.70;;;21.54;47.29;98254.78;5167193;28;20342;-60
2021/09/29 10:01:31;;;;;;;2.95;1.55;;;20.90;95.60;;;21.57;47.35;98236.63;5163170;28;20203;-60
2021/09/29 10:04:13;;;;;;;3.15;1.88;;;21.00;95.80;;;21.57;46.29;98247.91;5159341;28;20317;-61
2021/09/29 10:06:46;;;;;;;3.78;1.67;;;21.00;95.00;;;21.65;47.01;98239.41;5160383;28;20205;-61
2021/09/29 10:09:28;;;;;;;3.95;1.98;;;21.10;95.20;;;21.77;45.83;98244.84;5163166;28;20660;-61
2021/09/29 10:12:17;;;;;;;2.88;1.88;;;21.20;94.60;;;21.94;45.00;98243.41;5160503;28;20891;-60
2021/09/29 10:15:26;;;;;;;3.50;1.90;;;21.30;94.20;;;22.05;45.79;98243.63;5165773;28;20641;-60
2021/09/29 10:23:57;;;;;;;2.50;1.67;;;21.30;94.70;;;21.85;46.50;98234.56;5160576;28;20775;-60
2021/09/29 10:26:30;;;;;;;4.10;1.73;;;20.80;95.50;;;21.67;47.00;98237.72;5155733;28;20302;-61
2021/09/29 10:29:06;;;;;;;1.63;1.50;;;20.70;95.90;;;21.58;45.69;98231.47;5158809;28;20659;-61
2021/09/29 10:31:50;;;;;;;2.63;1.67;;;20.40;95.00;;;21.62;46.85;98235.00;5158833;28;20542;-60
2021/09/29 10:34:34;;;;;;;3.25;1.73;;;20.30;96.00;;;21.59;47.26;98228.03;5164964;28;20642;-60
2021/09/29 10:37:26;;;;;;;2.15;1.40;;;20.40;96.40;;;21.38;47.99;98219.81;5168535;28;20198;-60
2021/09/29 10:40:19;;;;;;;1.70;1.60;;;20.30;96.20;;;21.48;47.43;98224.34;5167231;28;20207;-61
2021/09/29 10:42:58;;;;;;;2.22;1.70;;;20.30;96.20;;;21.49;47.11;98223.50;5159931;28;20230;-60
2021/09/29 10:45:43;;;;;;;2.03;1.58;;;20.30;96.50;;;21.61;46.42;98216.78;5152892;28;20211;-59
2021/09/29 10:48:41;;;;;;;1.52;1.42;;;20.40;95.80;;;21.51;44.58;98208.78;5159239;28;20215;-60
2021/09/29 11:06:54;;;;;;;2.40;1.30;;;21.00;94.30;;;21.92;45.20;98199.97;5159513;28;20202;-60
2021/09/29 11:29:49;;;;;;;3.03;1.38;;;20.30;94.90;;;21.26;46.70;98189.22;5158959;28;20293;-59
2021/09/29 11:32:32;;;;;;;2.63;1.40;;;20.30;95.10;;;21.36;46.54;98190.25;5155220;28;20322;-60
2021/09/29 11:35:16;;;;;;;2.00;1.33;;;20.10;95.30;;;21.33;46.46;98200.59;5161183;28;20209;-60
2021/09/29 11:49:56;;;;;;;2.80;1.38;;;20.20;94.60;;;21.30;45.78;98174.53;5160284;28;20204;-61
2021/09/29 12:09:54;;;;;;;2.70;1.40;;;20.70;93.70;;;21.50;45.68;98147.22;5158450;28;20207;-60
2021/09/29 12:12:30;;;;;;;2.05;1.50;;;20.70;93.80;;;21.62;44.59;98146.56;5160875;28;20230;-60